Time;durP1;ratioP1;P1;durP2;ratioP2;P2;SDS_P1;SDS_P2;PMS_P1;PMS_P2;Temp;Humidity;BMP_temperature;BMP_pressure;BME280_temperature;BME280_humidity;BME280_pressure;Samples;Min_cycle;Max_cycle;Signal;HPM_P1;HPM_P2
2023/05/20 00:01:32;;;;;;;;;;;;;;;21.00;56.96;101968.63;2356603;75;51546;-75
2023/05/20 00:04:33;;;;;;;;;;;;;;;21.00;56.98;101971.33;2354699;75;50671;-75
2023/05/20 00:07:35;;;;;;;;;;;;;;;20.99;57.24;101962.41;2354702;75;50269;-76
2023/05/20 00:10:36;;;;;;;;;;;;;;;20.99;57.40;101969.63;2329941;75;52383;-75
2023/05/20 00:13:38;;;;;;;;;;;;;;;21.01;57.38;101972.99;2356651;75;50209;-75
2023/05/20 00:16:41;;;;;;;;;;;;;;;20.98;57.51;101971.48;2356650;75;51635;-76
2023/05/20 00:19:43;;;;;;;;;;;;;;;20.98;57.59;101964.75;2352675;75;51438;-75
2023/05/20 00:22:45;;;;;;;;;;;;;;;20.99;57.50;101966.93;2328356;75;52045;-73
2023/05/20 00:25:46;;;;;;;;;;;;;;;20.97;57.32;101963.08;2356567;75;50223;-75
2023/05/20 00:28:48;;;;;;;;;;;;;;;20.93;56.95;101971.14;2354577;75;50406;-76
2023/05/20 00:31:49;;;;;;;;;;;;;;;20.78;55.42;101964.72;2354939;75;50754;-74
2023/05/20 00:34:57;;;;;;;;;;;;;;;20.76;55.37;101961.38;2385087;74;52391;-71
2023/05/20 00:37:59;;;;;;;;;;;;;;;20.78;55.65;101970.10;2356458;75;51603;-74
2023/05/20 00:41:01;;;;;;;;;;;;;;;20.81;55.40;101968.45;2354989;75;51561;-73
2023/05/20 00:44:02;;;;;;;;;;;;;;;20.84;55.70;101966.27;2356738;75;51287;-74
2023/05/20 00:47:04;;;;;;;;;;;;;;;20.87;55.86;101966.43;2333816;75;51345;-74
2023/05/20 00:50:07;;;;;;;;;;;;;;;20.86;56.10;101976.36;2331871;75;51530;-73
2023/05/20 00:53:09;;;;;;;;;;;;;;;20.85;56.07;101971.13;2353831;75;50436;-74
2023/05/20 00:56:11;;;;;;;;;;;;;;;20.84;56.32;101966.77;2353585;75;50240;-76
2023/05/20 00:59:12;;;;;;;;;;;;;;;20.82;56.41;101970.95;2386151;74;51048;-75
2023/05/20 01:02:14;;;;;;;;;;;;;;;20.85;56.41;101966.58;2309635;75;51160;-74
2023/05/20 01:05:15;;;;;;;;;;;;;;;20.83;56.10;101959.69;2353668;75;49942;-75
2023/05/20 01:08:17;;;;;;;;;;;;;;;20.84;56.38;101966.77;2353568;75;51441;-75
2023/05/20 01:11:24;;;;;;;;;;;;;;;20.82;56.56;101950.78;2309705;75;51636;-75
2023/05/20 01:14:26;;;;;;;;;;;;;;;20.81;56.73;101949.63;2350533;75;50686;-77
2023/05/20 01:17:29;;;;;;;;;;;;;;;20.81;56.64;101955.00;2356555;75;51586;-74
2023/05/20 01:20:34;;;;;;;;;;;;;;;20.80;56.82;101952.79;2355804;75;50311;-73
2023/05/20 01:23:39;;;;;;;;;;;;;;;20.79;56.26;101946.25;2377756;74;52402;-76
2023/05/20 01:26:41;;;;;;;;;;;;;;;20.79;56.26;101944.91;2354523;75;51561;-75
2023/05/20 01:29:43;;;;;;;;;;;;;;;20.78;56.62;101946.77;2349979;75;50616;-76
2023/05/20 01:32:48;;;;;;;;;;;;;;;20.79;56.99;101939.02;2350380;75;50757;-75
2023/05/20 01:35:49;;;;;;;;;;;;;;;20.81;56.96;101941.55;2327954;75;52424;-75
2023/05/20 01:38:51;;;;;;;;;;;;;;;20.80;57.19;101942.54;2350138;75;50717;-76
2023/05/20 01:41:53;;;;;;;;;;;;;;;20.80;57.29;101943.38;2350476;75;51443;-75
2023/05/20 01:44:54;;;;;;;;;;;;;;;20.79;56.89;101929.59;2350174;75;51436;-74
2023/05/20 01:47:56;;;;;;;;;;;;;;;20.79;57.12;101928.25;2355791;75;50619;-75
2023/05/20 01:50:57;;;;;;;;;;;;;;;20.80;57.03;101930.44;2345523;75;52824;-74
2023/05/20 01:53:59;;;;;;;;;;;;;;;20.80;57.13;101936.65;2355595;75;51409;-74
2023/05/20 01:57:01;;;;;;;;;;;;;;;20.81;57.39;101934.83;2353348;75;51022;-74
2023/05/20 02:00:03;;;;;;;;;;;;;;;20.80;57.21;101928.58;2353467;75;50437;-73
2023/05/20 02:03:05;;;;;;;;;;;;;;;20.80;57.07;101931.78;2353402;75;51570;-74
2023/05/20 02:06:07;;;;;;;;;;;;;;;20.78;56.66;101917.17;2353881;75;51442;-76
2023/05/20 02:09:08;;;;;;;;;;;;;;;20.78;56.75;101929.75;2355669;75;51515;-76
2023/05/20 02:12:15;;;;;;;;;;;;;;;20.80;56.59;101927.74;2353797;75;51511;-76
2023/05/20 02:15:13;;;;;;;;;;;;;;;20.77;57.13;101926.23;2353403;75;22374;-77
2023/05/20 02:18:17;;;;;;;;;;;;;;;20.77;56.67;101920.84;2348340;75;50272;-75
2023/05/20 02:21:18;;;;;;;;;;;;;;;20.76;56.76;101913.80;2356733;75;22198;-76
2023/05/20 02:24:20;;;;;;;;;;;;;;;20.76;56.75;101917.84;2353885;75;51477;-76
2023/05/20 02:27:21;;;;;;;;;;;;;;;20.78;56.75;101923.03;2386018;74;52594;-76
2023/05/20 02:30:23;;;;;;;;;;;;;;;20.78;56.90;101913.61;2355969;75;50679;-76
2023/05/20 02:33:27;;;;;;;;;;;;;;;20.78;56.64;101918.99;2354053;75;51456;-76
2023/05/20 02:36:28;;;;;;;;;;;;;;;20.76;57.05;101912.97;2355566;74;22909;-76
2023/05/20 02:39:29;;;;;;;;;;;;;;;20.76;57.22;101915.66;2327355;75;52137;-74
2023/05/20 02:42:31;;;;;;;;;;;;;;;20.76;57.16;101910.28;2356034;75;51534;-75
2023/05/20 02:45:32;;;;;;;;;;;;;;;20.75;57.35;101921.52;2354340;75;50503;-75
2023/05/20 02:48:34;;;;;;;;;;;;;;;20.76;57.26;101927.77;2361522;75;50713;-75
2023/05/20 02:51:36;;;;;;;;;;;;;;;20.77;57.23;101928.08;2306204;76;51594;-77
2023/05/20 02:54:37;;;;;;;;;;;;;;;20.77;57.16;101929.43;2303916;76;51429;-76
2023/05/20 02:57:39;;;;;;;;;;;;;;;20.76;57.46;101934.48;2327773;75;51635;-75
2023/05/20 03:00:41;;;;;;;;;;;;;;;20.76;57.70;101926.41;2302873;76;50074;-74
2023/05/20 03:03:42;;;;;;;;;;;;;;;20.76;57.37;101927.77;2302301;76;51431;-76
2023/05/20 03:06:45;;;;;;;;;;;;;;;20.75;57.31;101924.71;2326814;76;51466;-75
2023/05/20 03:09:46;;;;;;;;;;;;;;;20.77;57.32;101935.64;2326945;75;51538;-76
2023/05/20 03:12:48;;;;;;;;;;;;;;;20.77;57.36;101936.16;2327392;76;51455;-76
2023/05/20 03:15:50;;;;;;;;;;;;;;;20.77;57.49;101936.98;2302625;76;49835;-76
2023/05/20 03:18:53;;;;;;;;;;;;;;;20.78;57.34;101945.89;2346761;75;49892;-76
2023/05/20 03:21:54;;;;;;;;;;;;;;;20.78;57.24;101944.55;2357695;74;50681;-76
2023/05/20 03:24:56;;;;;;;;;;;;;;;20.77;57.41;101945.56;2358713;75;51542;-77
2023/05/20 03:27:58;;;;;;;;;;;;;;;20.76;57.45;101947.42;2331059;75;51009;-76
2023/05/20 03:31:01;;;;;;;;;;;;;;;20.78;57.57;101948.58;2355821;75;50508;-76
2023/05/20 03:34:02;;;;;;;;;;;;;;;20.78;57.56;101948.58;2355981;75;51474;-77
2023/05/20 03:37:04;;;;;;;;;;;;;;;20.77;57.61;101946.91;2356028;74;50374;-77
2023/05/20 03:40:06;;;;;;;;;;;;;;;20.76;57.59;101946.59;2358320;75;51639;-76
2023/05/20 03:43:08;;;;;;;;;;;;;;;20.76;57.51;101943.90;2358019;74;50295;-75
2023/05/20 03:46:10;;;;;;;;;;;;;;;20.76;57.52;101958.70;2355085;75;51523;-76
2023/05/20 03:49:11;;;;;;;;;;;;;;;20.74;57.79;101950.78;2354168;75;51554;-76
2023/05/20 03:52:13;;;;;;;;;;;;;;;20.75;57.38;101956.98;2326680;75;52312;-76
2023/05/20 03:55:15;;;;;;;;;;;;;;;20.73;57.63;101958.52;2356190;75;52556;-77
2023/05/20 03:58:16;;;;;;;;;;;;;;;20.74;57.69;101958.01;2351506;75;51612;-76
2023/05/20 04:01:18;;;;;;;;;;;;;;;20.74;57.67;101958.01;2357362;75;50704;-76
2023/05/20 04:04:20;;;;;;;;;;;;;;;20.72;57.76;101956.81;2329445;75;52598;-77
2023/05/20 04:07:21;;;;;;;;;;;;;;;20.73;57.77;101961.21;2351249;75;51626;-77
2023/05/20 04:10:23;;;;;;;;;;;;;;;20.73;57.57;101959.00;2356189;75;50710;-76
2023/05/20 04:13:25;;;;;;;;;;;;;;;20.74;57.80;101955.32;2351682;74;51282;-77
2023/05/20 04:16:28;;;;;;;;;;;;;;;20.73;57.58;101949.58;2328283;75;51160;-77
2023/05/20 04:19:29;;;;;;;;;;;;;;;20.71;57.64;101950.28;2353840;75;50372;-76
2023/05/20 04:22:31;;;;;;;;;;;;;;;20.73;57.46;101946.89;2351840;75;50640;-76
2023/05/20 04:25:34;;;;;;;;;;;;;;;20.72;57.35;101935.81;2356272;74;50235;-77
2023/05/20 04:28:36;;;;;;;;;;;;;;;20.71;57.68;101938.17;2329071;75;51765;-76
2023/05/20 04:31:38;;;;;;;;;;;;;;;20.71;57.95;101951.63;2351509;75;51637;-76
2023/05/20 04:34:39;;;;;;;;;;;;;;;20.70;57.76;101937.31;2351110;74;51571;-77
2023/05/20 04:37:46;;;;;;;;;;;;;;;20.70;57.82;101943.20;2351418;75;50501;-77
2023/05/20 04:40:47;;;;;;;;;;;;;;;20.71;57.75;101950.28;2356339;75;22741;-76
2023/05/20 04:43:49;;;;;;;;;;;;;;;20.71;57.44;101948.42;2351173;75;51513;-76
2023/05/20 04:46:51;;;;;;;;;;;;;;;20.71;57.44;101952.97;2354964;74;51526;-76
2023/05/20 04:49:56;;;;;;;;;;;;;;;20.69;57.62;101952.28;2352651;75;50662;-76
2023/05/20 04:52:56;;;;;;;;;;;;;;;20.69;57.49;101949.59;2355681;75;23186;-76
2023/05/20 04:55:57;;;;;;;;;;;;;;;20.70;57.34;101952.61;2356148;75;50282;-75
2023/05/20 04:58:59;;;;;;;;;;;;;;;20.71;57.61;101950.28;2355705;75;51501;-76
2023/05/20 05:02:00;;;;;;;;;;;;;;;20.68;57.79;101949.23;2350665;75;50281;-76
2023/05/20 05:05:02;;;;;;;;;;;;;;;20.68;57.87;101946.55;2328361;75;52539;-75
2023/05/20 05:08:04;;;;;;;;;;;;;;;20.66;57.90;101946.22;2351295;75;50745;-76
2023/05/20 05:11:05;;;;;;;;;;;;;;;20.68;57.65;101947.41;2355061;74;53182;-77
2023/05/20 05:14:07;;;;;;;;;;;;;;;20.68;57.50;101939.83;2350738;75;50363;-76
2023/05/20 05:17:09;;;;;;;;;;;;;;;20.64;57.94;101942.85;2328719;75;51646;-76
2023/05/20 05:20:10;;;;;;;;;;;;;;;20.64;58.15;101950.92;2356962;75;50681;-76
2023/05/20 05:23:12;;;;;;;;;;;;;;;20.64;58.07;101941.51;2355536;75;50466;-76
2023/05/20 05:26:13;;;;;;;;;;;;;;;20.65;58.10;101948.59;2355529;75;50483;-77
2023/05/20 05:29:15;;;;;;;;;;;;;;;20.65;58.19;101948.59;2355687;75;50623;-76
2023/05/20 05:32:16;;;;;;;;;;;;;;;20.64;57.88;101949.58;2351558;75;51499;-77
2023/05/20 05:35:18;;;;;;;;;;;;;;;20.66;57.78;101942.70;2355905;75;51484;-75
2023/05/20 05:38:20;;;;;;;;;;;;;;;20.65;57.43;101937.83;2355592;75;51561;-77
2023/05/20 05:41:21;;;;;;;;;;;;;;;20.65;57.58;101940.52;2378820;74;52339;-77
2023/05/20 05:44:23;;;;;;;;;;;;;;;20.64;57.39;101932.09;2356327;74;51510;-76
2023/05/20 05:47:30;;;;;;;;;;;;;;;20.65;57.93;101927.55;2356496;75;51378;-77
2023/05/20 05:50:28;;;;;;;;;;;;;;;20.65;57.81;101931.11;2357304;74;22013;-77
2023/05/20 05:53:29;;;;;;;;;;;;;;;20.64;58.05;101931.26;2327510;75;51399;-76
2023/05/20 05:56:31;;;;;;;;;;;;;;;20.65;57.95;101927.07;2355661;75;50306;-78
2023/05/20 05:59:32;;;;;;;;;;;;;;;20.68;57.99;101926.38;2355513;75;49958;-77
2023/05/20 06:02:34;;;;;;;;;;;;;;;20.64;57.96;101928.06;2355796;75;50599;-77
2023/05/20 06:05:36;;;;;;;;;;;;;;;20.62;58.19;101923.34;2328577;75;51759;-75
2023/05/20 06:08:38;;;;;;;;;;;;;;;20.63;58.23;101923.70;2350995;75;50269;-76
2023/05/20 06:11:41;;;;;;;;;;;;;;;20.70;59.03;101926.55;2351202;75;50326;-75
2023/05/20 06:14:42;;;;;;;;;;;;;;;20.73;58.65;101913.27;2354974;75;51550;-77
2023/05/20 06:17:44;;;;;;;;;;;;;;;20.76;58.64;101911.62;2329897;75;52311;-76
2023/05/20 06:20:45;;;;;;;;;;;;;;;20.76;58.65;101907.59;2356177;75;51518;-76
2023/05/20 06:23:47;;;;;;;;;;;;;;;20.75;58.36;101907.23;2353497;75;51381;-76
2023/05/20 06:26:49;;;;;;;;;;;;;;;20.74;58.21;101915.81;2353666;75;50217;-77
2023/05/20 06:29:51;;;;;;;;;;;;;;;20.74;58.19;101917.16;2327544;75;52606;-76
2023/05/20 06:32:53;;;;;;;;;;;;;;;20.75;58.17;101913.95;2354125;75;51436;-76
2023/05/20 06:35:54;;;;;;;;;;;;;;;20.75;58.25;101912.09;2355852;75;51441;-76
2023/05/20 06:38:56;;;;;;;;;;;;;;;20.74;58.23;101918.50;2353635;75;50656;-76
2023/05/20 06:41:58;;;;;;;;;;;;;;;20.76;58.20;101921.03;2353636;75;51444;-76
2023/05/20 06:44:59;;;;;;;;;;;;;;;20.74;57.95;101919.01;2353615;75;50710;-75
2023/05/20 06:48:01;;;;;;;;;;;;;;;20.68;56.43;101917.83;2352891;75;51464;-76
2023/05/20 06:51:03;;;;;;;;;;;;;;;20.60;55.09;101931.23;2352590;75;51489;-75
2023/05/20 06:54:04;;;;;;;;;;;;;;;20.50;53.46;101921.97;2378628;74;52487;-75
2023/05/20 06:57:09;;;;;;;;;;;;;;;20.47;53.26;101921.44;2355410;75;51532;-74
2023/05/20 07:00:12;;;;;;;;;;;;;;;20.45;53.41;101929.69;2353519;75;51484;-74
2023/05/20 07:03:14;;;;;;;;;;;;;;;20.43;53.44;101927.15;2355523;75;50762;-76
2023/05/20 07:06:15;;;;;;;;;;;;;;;20.43;53.40;101929.84;2328348;75;52518;-73
2023/05/20 07:09:17;;;;;;;;;;;;;;;20.41;53.35;101933.19;2355827;75;51470;-75
2023/05/20 07:12:18;;;;;;;;;;;;;;;20.41;53.38;101929.16;2353610;75;52425;-76
2023/05/20 07:15:20;;;;;;;;;;;;;;;20.38;53.49;101925.96;2355905;75;50395;-75
2023/05/20 07:18:22;;;;;;;;;;;;;;;20.39;53.37;101926.29;2329643;75;52629;-75
2023/05/20 07:21:23;;;;;;;;;;;;;;;20.38;53.45;101918.73;2356825;75;52120;-75
2023/05/20 07:24:25;;;;;;;;;;;;;;;20.37;53.52;101918.88;2353532;75;50245;-74
2023/05/20 07:27:26;;;;;;;;;;;;;;;20.34;53.68;101910.64;2355244;75;51443;-74
2023/05/20 07:30:28;;;;;;;;;;;;;;;20.36;53.63;101921.25;2327065;75;52283;-74
2023/05/20 07:33:30;;;;;;;;;;;;;;;20.35;53.72;101912.34;2353467;75;51379;-74
2023/05/20 07:36:31;;;;;;;;;;;;;;;20.36;53.81;101901.92;2355240;75;51529;-75
2023/05/20 07:39:33;;;;;;;;;;;;;;;20.37;53.79;101897.38;2353616;75;51433;-74
2023/05/20 07:42:34;;;;;;;;;;;;;;;20.39;53.87;101890.83;2340884;74;52656;-75
2023/05/20 07:45:36;;;;;;;;;;;;;;;20.40;53.89;101901.94;2341367;75;50346;-75
2023/05/20 07:48:38;;;;;;;;;;;;;;;20.41;53.94;101899.58;2359176;75;51509;-75
2023/05/20 07:51:39;;;;;;;;;;;;;;;20.42;53.90;101892.34;2356407;75;51681;-75
2023/05/20 07:54:41;;;;;;;;;;;;;;;20.40;54.24;101887.16;2380284;74;51155;-75
2023/05/20 07:57:42;;;;;;;;;;;;;;;20.37;54.28;101891.52;2350082;75;51513;-73
2023/05/20 08:00:44;;;;;;;;;;;;;;;20.39;54.30;101880.59;2350086;74;50186;-74
2023/05/20 08:03:46;;;;;;;;;;;;;;;20.47;54.55;101881.11;2355113;75;51502;-74
2023/05/20 08:06:47;;;;;;;;;;;;;;;20.44;54.14;101884.97;2349381;75;50605;-73
2023/05/20 08:09:49;;;;;;;;;;;;;;;20.51;54.48;101883.30;2352549;74;50122;-72
2023/05/20 08:12:50;;;;;;;;;;;;;;;20.53;54.66;101883.98;2357703;75;51414;-77
2023/05/20 08:15:54;;;;;;;;;;;;;;;20.50;54.59;101877.60;2356134;75;50358;-77
2023/05/20 08:18:55;;;;;;;;;;;;;;;20.50;54.61;101874.05;2354756;74;50324;-77
2023/05/20 08:21:57;;;;;;;;;;;;;;;20.53;54.70;101882.64;2360426;75;51594;-75
2023/05/20 08:24:58;;;;;;;;;;;;;;;20.50;54.81;101877.60;2360446;75;50266;-76
2023/05/20 08:28:05;;;;;;;;;;;;;;;20.54;54.73;101874.06;2365429;75;50094;-75
2023/05/20 08:31:06;;;;;;;;;;;;;;;20.53;54.92;101875.92;2332037;75;51250;-77
2023/05/20 08:34:08;;;;;;;;;;;;;;;20.54;54.69;101876.75;2360252;75;50269;-75
2023/05/20 08:37:10;;;;;;;;;;;;;;;20.54;55.13;101870.03;2365458;75;50437;-75
2023/05/20 08:40:12;;;;;;;;;;;;;;;20.53;55.05;101864.33;2360964;73;50392;-77
2023/05/20 08:43:14;;;;;;;;;;;;;;;20.51;55.15;101856.42;2337795;74;52921;-78
2023/05/20 08:46:16;;;;;;;;;;;;;;;20.50;55.23;101848.02;2371309;73;52064;-79
2023/05/20 08:49:19;;;;;;;;;;;;;;;20.51;55.22;101848.35;2356436;74;50288;-79
2023/05/20 08:52:21;;;;;;;;;;;;;;;20.51;55.33;101848.86;2357983;74;51577;-75
2023/05/20 08:55:26;;;;;;;;;;;;;;;20.51;55.36;101857.77;2327751;75;51658;-74
2023/05/20 08:58:28;;;;;;;;;;;;;;;20.50;55.36;101847.16;2354790;75;50204;-76
2023/05/20 09:01:30;;;;;;;;;;;;;;;20.51;55.51;101848.35;2355086;75;51570;-77
2023/05/20 09:04:31;;;;;;;;;;;;;;;20.54;55.36;101844.02;2365394;75;50445;-77
2023/05/20 09:07:33;;;;;;;;;;;;;;;20.56;55.39;101851.41;2363599;75;51508;-77
2023/05/20 09:10:35;;;;;;;;;;;;;;;20.56;55.37;101853.27;2369272;74;50678;-77
2023/05/20 09:13:37;;;;;;;;;;;;;;;20.55;55.37;101848.40;2367943;74;50720;-77
2023/05/20 09:16:39;;;;;;;;;;;;;;;20.56;55.24;101858.14;2361333;75;50628;-78
2023/05/20 09:19:41;;;;;;;;;;;;;;;20.54;55.32;101850.73;2334622;75;51734;-80
2023/05/20 09:22:43;;;;;;;;;;;;;;;20.54;55.42;101857.93;2364579;74;51432;-77
2023/05/20 09:25:44;;;;;;;;;;;;;;;20.56;55.41;101847.37;2338138;75;51444;-77
2023/05/20 09:28:46;;;;;;;;;;;;;;;20.56;55.45;101844.69;2338384;75;51518;-75
2023/05/20 09:31:48;;;;;;;;;;;;;;;20.56;55.53;101840.66;2338025;75;51368;-74
2023/05/20 09:34:50;;;;;;;;;;;;;;;20.59;55.53;101842.17;2379180;73;51450;-75
2023/05/20 09:37:56;;;;;;;;;;;;;;;20.61;55.31;101836.96;2401602;74;50722;-79
2023/05/20 09:41:00;;;;;;;;;;;;;;;20.62;55.48;101848.55;2372333;74;51596;-77
2023/05/20 09:44:01;;;;;;;;;;;;;;;20.64;55.36;101839.31;2370082;74;22368;-77
2023/05/20 09:47:02;;;;;;;;;;;;;;;20.63;55.52;101847.56;2361151;75;50270;-76
2023/05/20 09:50:06;;;;;;;;;;;;;;;20.62;55.53;101839.97;2354284;74;50733;-77
2023/05/20 09:53:08;;;;;;;;;;;;;;;20.63;55.49;101841.67;2353254;75;50322;-76
2023/05/20 09:56:09;;;;;;;;;;;;;;;20.62;55.61;101848.05;2353490;75;50670;-74
2023/05/20 09:59:11;;;;;;;;;;;;;;;20.63;55.61;101837.64;2353517;75;51439;-79
2023/05/20 10:02:12;;;;;;;;;;;;;;;20.62;55.47;101836.45;2356309;75;50725;-78
2023/05/20 10:05:18;;;;;;;;;;;;;;;20.61;55.36;101841.00;2354283;75;51451;-79
2023/05/20 10:08:37;;;;;;;;;;;;;;;20.62;55.35;101835.11;2353534;75;51481;-77
2023/05/20 10:11:40;;;;;;;;;;;;;;;20.61;55.36;101837.47;2353652;75;50307;-76
2023/05/20 10:15:00;;;;;;;;;;;;;;;20.61;55.41;101835.62;2353796;75;51425;-76
2023/05/20 10:18:06;;;;;;;;;;;;;;;20.62;55.42;101840.48;2355635;75;51484;-75
2023/05/20 10:21:17;;;;;;;;;;;;;;;20.63;55.71;101831.42;2365911;75;50628;-78
2023/05/20 10:24:21;;;;;;;;;;;;;;;20.64;55.66;101833.93;2360992;75;50784;-77
2023/05/20 10:27:22;;;;;;;;;;;;;;;20.66;55.67;101827.05;2365612;75;50275;-78
2023/05/20 10:30:24;;;;;;;;;;;;;;;20.69;55.66;101834.78;2365700;75;50718;-77
2023/05/20 10:33:30;;;;;;;;;;;;;;;20.72;55.56;101824.19;2334425;75;51248;-76
2023/05/20 10:36:30;;;;;;;;;;;;;;;20.72;55.68;101818.30;2359275;75;22336;-76
2023/05/20 10:39:35;;;;;;;;;;;;;;;20.73;55.75;101829.41;2365419;75;51539;-74
2023/05/20 10:42:36;;;;;;;;;;;;;;;20.75;55.63;101815.78;2360403;75;50290;-75
2023/05/20 10:45:49;;;;;;;;;;;;;;;20.76;55.67;101810.75;2329503;75;49560;-76
2023/05/20 10:48:51;;;;;;;;;;;;;;;20.77;55.77;101812.42;2359364;75;50679;-75
2023/05/20 10:51:52;;;;;;;;;;;;;;;20.78;55.68;101803.33;2360698;75;52376;-74
2023/05/20 10:54:57;;;;;;;;;;;;;;;20.76;55.76;101795.45;2365618;75;50490;-75
2023/05/20 10:57:59;;;;;;;;;;;;;;;20.77;55.70;101793.59;2332886;75;49588;-75
2023/05/20 11:01:02;;;;;;;;;;;;;;;20.76;55.58;101798.65;2365687;75;50357;-75
2023/05/20 11:04:03;;;;;;;;;;;;;;;20.77;55.47;101798.97;2365679;74;50493;-75
2023/05/20 11:07:05;;;;;;;;;;;;;;;20.76;55.51;101797.30;2365319;75;51315;-75
2023/05/20 11:10:08;;;;;;;;;;;;;;;20.77;55.52;101791.73;2328236;75;51764;-76
2023/05/20 11:13:11;;;;;;;;;;;;;;;20.78;55.42;101792.56;2354786;75;51620;-78
2023/05/20 11:16:13;;;;;;;;;;;;;;;20.79;55.42;101780.81;2354833;75;50827;-75
2023/05/20 11:19:15;;;;;;;;;;;;;;;20.80;55.46;101781.97;2356330;74;51520;-73
2023/05/20 11:22:17;;;;;;;;;;;;;;;20.81;55.43;101777.45;2330277;75;52531;-76
2023/05/20 11:25:18;;;;;;;;;;;;;;;20.82;55.36;101785.85;2356744;75;50254;-74
2023/05/20 11:28:23;;;;;;;;;;;;;;;20.84;55.39;101774.42;2354754;75;51407;-75
2023/05/20 11:31:25;;;;;;;;;;;;;;;20.85;55.25;101774.75;2355064;75;50759;-75
2023/05/20 11:34:28;;;;;;;;;;;;;;;20.85;55.42;101770.71;2385122;74;51137;-74
2023/05/20 11:37:30;;;;;;;;;;;;;;;20.89;55.07;101768.02;2354735;75;51648;-75
2023/05/20 11:40:32;;;;;;;;;;;;;;;20.89;53.89;101766.68;2355106;75;51055;-77
2023/05/20 11:43:33;;;;;;;;;;;;;;;20.91;52.94;101778.11;2357491;74;50714;-77
2023/05/20 11:46:35;;;;;;;;;;;;;;;20.81;52.71;101767.53;2338161;75;50117;-75
2023/05/20 11:49:40;;;;;;;;;;;;;;;20.78;53.35;101766.53;2350624;74;50693;-78
2023/05/20 11:52:41;;;;;;;;;;;;;;;20.79;53.66;101770.89;2357243;75;51553;-75
2023/05/20 11:55:46;;;;;;;;;;;;;;;20.81;53.83;101759.46;2355904;74;50678;-78
2023/05/20 11:58:48;;;;;;;;;;;;;;;20.84;54.05;101760.97;2392878;73;51332;-75
2023/05/20 12:01:49;;;;;;;;;;;;;;;20.87;54.20;101769.53;2360581;75;50767;-75
2023/05/20 12:04:51;;;;;;;;;;;;;;;20.88;54.21;101756.91;2358230;75;50787;-79
2023/05/20 12:07:53;;;;;;;;;;;;;;;20.91;54.34;101741.80;2360047;75;51458;-77
2023/05/20 12:10:54;;;;;;;;;;;;;;;20.92;54.40;101749.36;2370591;74;51613;-75
2023/05/20 12:13:56;;;;;;;;;;;;;;;20.92;54.27;101742.11;2406313;73;50506;-75
2023/05/20 12:16:58;;;;;;;;;;;;;;;20.93;54.40;101740.26;2401070;74;51537;-77
2023/05/20 12:20:00;;;;;;;;;;;;;;;20.93;54.44;101739.75;2387250;73;51433;-76
2023/05/20 12:23:01;;;;;;;;;;;;;;;20.95;54.48;101743.11;2378509;74;50968;-76
2023/05/20 12:26:04;;;;;;;;;;;;;;;20.96;54.40;101734.53;2353001;75;52195;-75
2023/05/20 12:29:06;;;;;;;;;;;;;;;20.94;54.34;101722.61;2352879;75;50777;-74
2023/05/20 12:32:07;;;;;;;;;;;;;;;20.97;54.51;101718.22;2351624;74;50337;-73
2023/05/20 12:35:09;;;;;;;;;;;;;;;20.99;54.68;101718.03;2326790;75;51525;-74
2023/05/20 12:38:11;;;;;;;;;;;;;;;21.01;54.56;101704.73;2353224;74;51580;-74
2023/05/20 12:41:12;;;;;;;;;;;;;;;21.04;54.57;101707.59;2354878;75;53145;-75
2023/05/20 12:44:14;;;;;;;;;;;;;;;21.05;54.53;101704.73;2354822;74;50709;-73
2023/05/20 12:47:15;;;;;;;;;;;;;;;21.08;54.72;101708.93;2378825;73;52578;-73
2023/05/20 12:50:17;;;;;;;;;;;;;;;21.09;54.74;101698.00;2355980;75;51474;-73
2023/05/20 12:53:19;;;;;;;;;;;;;;;21.08;54.71;101699.00;2357590;75;51425;-74
2023/05/20 12:56:21;;;;;;;;;;;;;;;21.08;54.70;101696.31;2358710;74;50679;-74
2023/05/20 12:59:22;;;;;;;;;;;;;;;21.10;55.00;101694.29;2341315;74;49430;-72
2023/05/20 13:02:24;;;;;;;;;;;;;;;21.13;55.12;101693.61;2387749;73;51452;-75
2023/05/20 13:05:25;;;;;;;;;;;;;;;21.13;54.83;101686.38;2374600;73;51582;-74
2023/05/20 13:08:27;;;;;;;;;;;;;;;21.10;54.89;101684.87;2384859;73;50674;-75
2023/05/20 13:11:29;;;;;;;;;;;;;;;21.11;54.94;101680.32;2361087;75;50062;-74
2023/05/20 13:14:30;;;;;;;;;;;;;;;21.10;55.08;101675.97;2359226;74;51329;-76
2023/05/20 13:17:32;;;;;;;;;;;;;;;21.08;55.04;101669.40;2396919;73;51470;-76
2023/05/20 13:20:34;;;;;;;;;;;;;;;21.09;55.18;101658.98;2356390;74;50654;-76
2023/05/20 13:23:35;;;;;;;;;;;;;;;21.13;55.02;101654.59;2368381;74;51625;-77
2023/05/20 13:26:37;;;;;;;;;;;;;;;21.13;54.89;101661.32;2391445;73;50315;-76
2023/05/20 13:29:39;;;;;;;;;;;;;;;21.12;55.08;101648.86;2388071;74;49928;-76
2023/05/20 13:32:40;;;;;;;;;;;;;;;21.13;55.05;101645.17;2363840;74;50627;-78
2023/05/20 13:35:42;;;;;;;;;;;;;;;21.16;55.09;101644.30;2309803;75;52490;-76
2023/05/20 13:38:43;;;;;;;;;;;;;;;21.17;55.01;101633.02;2335403;75;51442;-77
2023/05/20 13:41:45;;;;;;;;;;;;;;;21.17;54.99;101628.98;2366763;74;51354;-78
2023/05/20 13:44:46;;;;;;;;;;;;;;;21.16;54.69;101630.84;2337016;74;51877;-76
2023/05/20 13:47:48;;;;;;;;;;;;;;;21.13;54.71;101624.98;2309843;75;51080;-76
2023/05/20 13:50:50;;;;;;;;;;;;;;;21.17;54.50;101616.87;2357241;75;51402;-76
2023/05/20 13:53:51;;;;;;;;;;;;;;;21.17;54.42;101627.64;2350460;75;50065;-75
2023/05/20 13:56:53;;;;;;;;;;;;;;;21.19;54.28;101618.89;2350124;75;50460;-76
2023/05/20 13:59:54;;;;;;;;;;;;;;;21.20;54.21;101615.20;2327973;75;51085;-76
2023/05/20 14:02:56;;;;;;;;;;;;;;;21.18;54.15;101607.80;2350306;75;51483;-76
2023/05/20 14:05:58;;;;;;;;;;;;;;;21.18;54.13;101615.36;2350447;75;51512;-76
2023/05/20 14:09:00;;;;;;;;;;;;;;;21.20;54.02;101616.55;2350163;74;50732;-76
2023/05/20 14:12:01;;;;;;;;;;;;;;;21.22;53.96;101617.19;2350706;75;50641;-76
2023/05/20 14:15:03;;;;;;;;;;;;;;;21.22;53.89;101607.77;2355092;75;50440;-76
2023/05/20 14:18:04;;;;;;;;;;;;;;;21.23;53.83;101601.38;2357646;75;50091;-76
2023/05/20 14:21:06;;;;;;;;;;;;;;;21.24;53.77;101599.01;2329623;75;50341;-76
2023/05/20 14:24:08;;;;;;;;;;;;;;;21.24;53.76;101592.28;2386639;74;51664;-75
2023/05/20 14:27:10;;;;;;;;;;;;;;;21.23;53.74;101593.31;2353963;75;50459;-75
2023/05/20 14:30:11;;;;;;;;;;;;;;;21.25;53.67;101592.63;2356226;75;50324;-75
2023/05/20 14:33:13;;;;;;;;;;;;;;;21.25;53.67;101597.50;2354154;75;51476;-76
2023/05/20 14:36:15;;;;;;;;;;;;;;;21.26;53.59;101581.66;2328996;75;50276;-76
2023/05/20 14:39:16;;;;;;;;;;;;;;;21.27;53.61;101591.44;2354252;75;50408;-76
2023/05/20 14:42:18;;;;;;;;;;;;;;;21.27;53.55;101582.02;2356035;74;50745;-75
2023/05/20 14:45:19;;;;;;;;;;;;;;;21.27;53.55;101582.02;2356503;75;50613;-76
2023/05/20 14:48:21;;;;;;;;;;;;;;;21.29;53.47;101571.88;2357410;75;50061;-76
2023/05/20 14:51:23;;;;;;;;;;;;;;;21.29;53.49;101575.91;2352759;75;50640;-76
2023/05/20 14:54:26;;;;;;;;;;;;;;;21.29;53.45;101570.53;2350294;75;51483;-76
2023/05/20 14:57:28;;;;;;;;;;;;;;;21.29;53.46;101567.84;2357171;74;52516;-75
2023/05/20 15:00:31;;;;;;;;;;;;;;;21.31;53.43;101570.37;2358405;74;50413;-76
2023/05/20 15:03:33;;;;;;;;;;;;;;;21.30;53.41;101568.19;2367012;73;52605;-77
2023/05/20 15:06:35;;;;;;;;;;;;;;;21.32;53.38;101566.65;2353175;75;50038;-76
2023/05/20 15:09:37;;;;;;;;;;;;;;;21.33;53.35;101552.19;2351646;75;52309;-76
2023/05/20 15:12:38;;;;;;;;;;;;;;;21.33;53.38;101558.92;2354935;75;51309;-78
2023/05/20 15:15:40;;;;;;;;;;;;;;;21.33;53.37;101554.88;2327712;75;50951;-77
2023/05/20 15:18:41;;;;;;;;;;;;;;;21.31;53.48;101538.06;2359902;75;50741;-75
2023/05/20 15:21:43;;;;;;;;;;;;;;;21.35;53.38;101539.39;2352633;75;51425;-76
2023/05/20 15:24:45;;;;;;;;;;;;;;;21.35;53.40;101542.56;2351633;74;51417;-78
2023/05/20 15:27:46;;;;;;;;;;;;;;;21.36;53.37;101541.57;2377569;74;51575;-77
2023/05/20 15:30:49;;;;;;;;;;;;;;;21.37;53.36;101547.27;2328081;75;52379;-78
2023/05/20 15:33:51;;;;;;;;;;;;;;;21.37;53.32;101538.68;2350869;75;53641;-76